Time;durP1;ratioP1;P1;durP2;ratioP2;P2;SDS_P1;SDS_P2;PMS_P1;PMS_P2;Temp;Humidity;BMP_temperature;BMP_pressure;BME280_temperature;BME280_humidity;BME280_pressure;Samples;Min_cycle;Max_cycle;Signal;HPM_P1;HPM_P2
2022/06/11 00:01:06;;;;;;;5.57;2.60;;;;;;;17.50;88.24;102093.13;5073777;28;20032;-36
2022/06/11 00:03:32;;;;;;;4.55;2.50;;;;;;;17.51;87.85;102091.22;5074063;28;20119;-37
2022/06/11 00:05:58;;;;;;;3.72;2.38;;;;;;;17.46;88.19;102089.22;5074461;28;20449;-36
2022/06/11 00:08:23;;;;;;;;;;;;;;;17.59;87.42;102096.31;5074594;28;20097;-36
2022/06/11 00:10:49;;;;;;;5.57;2.40;;;;;;;17.43;87.47;102086.19;5074483;28;19935;-36
2022/06/11 00:13:15;;;;;;;;;;;;;;;17.55;87.07;102097.03;5074702;28;20476;-36
2022/06/11 00:15:42;;;;;;;4.45;2.38;;;;;;;17.44;88.14;102098.78;5074423;28;20356;-36
2022/06/11 00:18:07;;;;;;;4.30;2.08;;;;;;;17.35;88.00;102090.13;5073758;28;20059;-36
2022/06/11 00:20:33;;;;;;;;;;;;;;;17.47;87.25;102095.53;5074167;28;20410;-36
2022/06/11 00:22:58;;;;;;;4.83;2.20;;;;;;;17.33;88.04;102094.22;5074450;28;19912;-36
2022/06/11 00:25:24;;;;;;;;;;;;;;;17.39;87.29;102090.50;5073861;28;20419;-36
2022/06/11 00:27:49;;;;;;;4.22;2.35;;;;;;;17.27;87.78;102085.06;5074449;28;19912;-36
2022/06/11 00:30:15;;;;;;;;;;;;;;;17.35;87.06;102090.13;5073996;28;20052;-36
2022/06/11 00:32:41;;;;;;;3.05;1.90;;;;;;;17.17;88.57;102093.06;5073113;28;19989;-36
2022/06/11 00:35:08;;;;;;;5.43;2.30;;;;;;;17.05;88.98;102093.13;5073286;28;20036;-36
2022/06/11 00:37:34;;;;;;;5.97;2.10;;;;;;;17.12;88.90;102085.59;5073724;28;20086;-36
2022/06/11 00:39:59;;;;;;;;;;;;;;;17.17;88.10;102085.69;5074245;28;20401;-36
2022/06/11 00:42:30;;;;;;;4.45;2.25;;;;;;;16.94;88.72;102063.97;5073968;28;19909;-36
2022/06/11 00:45:19;;;;;;;5.07;2.20;;;;;;;16.93;88.43;102071.34;5073593;28;20033;-36
2022/06/11 00:47:49;;;;;;;3.63;2.10;;;;;;;16.99;89.41;102078.56;5073119;28;20025;-36
2022/06/11 00:50:24;;;;;;;7.50;2.67;;;;;;;16.95;89.67;102082.00;5073331;28;20028;-36
2022/06/11 00:52:50;;;;;;;4.63;2.45;;;;;;;16.72;89.70;102070.09;5073430;28;20045;-36
2022/06/11 00:55:30;;;;;;;5.18;2.72;;;;;;;16.84;89.48;102074.69;5073569;28;20135;-36
2022/06/11 00:58:07;;;;;;;4.93;2.58;;;;;;;16.84;89.92;102080.16;5073176;28;20111;-36
2022/06/11 01:00:41;;;;;;;6.30;2.30;;;;;;;16.79;90.73;102085.50;5073767;28;20075;-36
2022/06/11 01:03:13;;;;;;;5.90;2.30;;;;;;;16.77;89.98;102071.25;5072866;28;20089;-36
2022/06/11 01:05:42;;;;;;;4.13;2.20;;;;;;;16.79;89.96;102080.03;5073081;28;20035;-36
2022/06/11 01:08:28;;;;;;;5.35;2.40;;;;;;;16.81;90.13;102086.09;5073805;28;20032;-36
2022/06/11 01:11:04;;;;;;;3.83;2.30;;;;;;;16.78;89.61;102079.22;5073759;28;20036;-36
2022/06/11 01:13:36;;;;;;;4.65;2.33;;;;;;;16.77;90.31;102080.28;5073534;28;20033;-36
2022/06/11 01:16:14;;;;;;;4.50;2.17;;;;;;;16.75;90.08;102078.88;5072806;28;20048;-36
2022/06/11 01:19:24;;;;;;;4.82;2.30;;;;;;;16.66;90.79;102081.94;5073607;28;20040;-36
2022/06/11 01:22:17;;;;;;;5.28;2.35;;;;;;;16.63;90.88;102074.22;5072991;28;20032;-35
2022/06/11 01:25:08;;;;;;;5.03;2.17;;;;;;;16.60;91.22;102082.09;5073202;28;20020;-36
2022/06/11 01:27:49;;;;;;;3.53;2.10;;;;;;;16.46;91.04;102067.88;5073020;28;20052;-36
2022/06/11 01:30:25;;;;;;;3.60;2.20;;;;;;;16.60;90.73;102077.47;5072900;28;20029;-36
2022/06/11 01:33:13;;;;;;;3.22;2.13;;;;;;;16.62;90.60;102083.50;5072858;28;20035;-36
2022/06/11 01:35:57;;;;;;;5.75;2.30;;;;;;;16.48;91.32;102076.66;5073559;28;20028;-36
2022/06/11 01:38:26;;;;;;;4.72;2.30;;;;;;;16.43;91.71;102074.63;5073355;28;20047;-36
2022/06/11 01:41:24;;;;;;;4.35;2.10;;;;;;;16.45;92.13;102069.78;5072511;28;20028;-36
2022/06/11 01:43:53;;;;;;;5.25;2.80;;;;;;;16.44;92.32;102078.19;5073767;28;20054;-36
2022/06/11 01:46:23;;;;;;;4.50;2.47;;;;;;;16.41;92.65;102074.06;5076457;28;20094;-36
2022/06/11 01:48:57;;;;;;;3.13;1.95;;;;;;;16.45;92.42;102074.41;5076390;28;20044;-36
2022/06/11 01:51:47;;;;;;;3.60;2.17;;;;;;;16.44;92.04;102068.09;5075753;28;20041;-36
2022/06/11 01:54:34;;;;;;;4.68;2.70;;;;;;;16.33;92.71;102074.41;5076113;28;20481;-36
2022/06/11 01:57:26;;;;;;;5.13;2.08;;;;;;;16.40;92.63;102071.56;5076573;28;20020;-36
2022/06/11 02:00:04;;;;;;;4.38;2.38;;;;;;;16.33;92.68;102068.97;5076751;28;20020;-36
2022/06/11 02:02:47;;;;;;;5.47;2.50;;;;;;;16.22;92.97;102065.19;5077134;28;20492;-36
2022/06/11 02:05:21;;;;;;;3.95;2.25;;;;;;;16.26;93.04;102081.91;5076349;28;20499;-36
2022/06/11 02:08:14;;;;;;;4.10;2.22;;;;;;;16.32;92.56;102069.22;5076596;28;20050;-36
2022/06/11 02:11:13;;;;;;;5.10;2.53;;;;;;;16.23;92.97;102071.47;5076466;28;20020;-36
2022/06/11 02:13:49;;;;;;;4.10;2.38;;;;;;;16.11;93.10;102067.94;5076483;28;20024;-36
2022/06/11 02:16:32;;;;;;;4.13;2.50;;;;;;;16.12;93.50;102077.78;5076997;28;20070;-36
2022/06/11 02:19:00;;;;;;;3.85;2.40;;;;;;;16.13;93.64;102077.53;5076383;28;20384;-36
2022/06/11 02:21:34;;;;;;;4.45;2.50;;;;;;;16.10;93.78;102071.69;5075873;28;20071;-36
2022/06/11 02:24:07;;;;;;;5.78;2.38;;;;;;;16.02;94.31;102062.00;5076093;28;20491;-36
2022/06/11 02:26:39;;;;;;;5.95;2.28;;;;;;;15.83;93.93;102055.00;5076795;28;20365;-36
2022/06/11 02:29:07;;;;;;;6.38;2.70;;;;;;;15.99;94.72;102072.53;5076769;28;20035;-36
2022/06/11 02:31:37;;;;;;;4.55;2.58;;;;;;;16.03;94.40;102084.66;5076451;28;20028;-36
2022/06/11 02:34:06;;;;;;;6.85;2.80;;;;;;;15.98;94.38;102079.91;5075696;28;20024;-36
2022/06/11 02:36:45;;;;;;;6.18;2.90;;;;;;;15.96;94.36;102090.22;5076880;28;20025;-36
2022/06/11 02:39:10;;;;;;;4.60;2.47;;;;;;;16.01;94.39;102081.34;5075888;28;20032;-36
2022/06/11 02:41:36;;;;;;;3.60;2.78;;;;;;;16.00;93.95;102083.22;5075791;28;20043;-36
2022/06/11 02:44:01;;;;;;;;;;;;;;;16.07;92.80;102094.84;5076305;28;20457;-36
2022/06/11 02:46:41;;;;;;;6.57;3.10;;;;;;;16.01;94.35;102092.25;5076364;28;20014;-36
2022/06/11 02:49:17;;;;;;;4.15;2.65;;;;;;;15.85;94.52;102080.13;5076172;28;20025;-36
2022/06/11 02:51:44;;;;;;;5.03;2.90;;;;;;;15.91;95.00;102095.56;5075587;28;20532;-36
2022/06/11 02:54:10;;;;;;;4.95;2.70;;;;;;;15.93;94.71;102099.72;5073905;28;20101;-36
2022/06/11 02:56:36;;;;;;;6.00;3.22;;;;;;;15.86;94.72;102098.16;5074010;28;20455;-36
2022/06/11 02:59:03;;;;;;;5.82;2.40;;;;;;;15.85;95.18;102101.94;5075217;28;20020;-36
2022/06/11 03:01:29;;;;;;;4.20;2.45;;;;;;;15.88;95.04;102113.22;5075268;28;20024;-36
2022/06/11 03:03:55;;;;;;;4.47;2.70;;;;;;;15.83;94.56;102112.28;5075964;28;20036;-36
2022/06/11 03:06:21;;;;;;;;;;;;;;;15.93;93.08;102104.34;5075983;28;20518;-36
2022/06/11 03:08:46;;;;;;;4.25;2.30;;;;;;;15.65;93.76;102102.28;5075480;28;19999;-36
2022/06/11 03:11:12;;;;;;;4.57;2.38;;;;;;;15.70;95.07;102114.13;5075233;28;20453;-36
2022/06/11 03:13:38;;;;;;;;;;;;;;;15.79;93.49;102117.34;5075670;28;20038;-36
2022/06/11 03:16:05;;;;;;;3.75;2.33;;;;;;;15.69;95.02;102120.66;5075257;28;20311;-36
2022/06/11 03:18:31;;;;;;;3.65;2.42;;;;;;;15.62;94.79;102121.81;5074914;28;20036;-36
2022/06/11 03:20:56;;;;;;;;;;;;;;;15.77;93.38;102114.03;5076255;28;20047;-36
2022/06/11 03:23:22;;;;;;;4.18;2.47;;;;;;;15.76;94.46;102117.81;5074008;28;20361;-36
2022/06/11 03:25:47;;;;;;;;;;;;;;;15.82;92.72;102118.81;5075575;28;20158;-36
2022/06/11 03:28:22;;;;;;;4.47;2.33;;;;;;;15.67;94.50;102121.97;5075201;28;19912;-36
2022/06/11 03:30:49;;;;;;;5.38;2.40;;;;;;;15.62;94.21;102124.53;5075309;28;20055;-36
2022/06/11 03:33:15;;;;;;;5.07;2.25;;;;;;;15.65;94.55;102119.47;5074470;28;20025;-36
2022/06/11 03:35:41;;;;;;;;;;;;;;;15.78;93.20;102131.25;5075689;28;20032;-36
2022/06/11 03:38:08;;;;;;;3.60;2.15;;;;;;;15.63;94.46;102132.50;5074287;28;19954;-37
2022/06/11 03:40:34;;;;;;;4.63;2.20;;;;;;;15.61;94.42;102134.59;5074892;28;20024;-37
2022/06/11 03:43:00;;;;;;;4.30;2.40;;;;;;;15.67;94.39;102130.97;5074283;28;20028;-37
2022/06/11 03:45:26;;;;;;;5.80;2.70;;;;;;;15.65;94.77;102138.53;5074775;28;20032;-36
2022/06/11 03:47:52;;;;;;;4.82;2.78;;;;;;;15.68;94.36;102137.25;5074521;28;20036;-37
2022/06/11 03:50:24;;;;;;;5.32;2.20;;;;;;;15.77;94.62;102143.22;5074390;28;20036;-37
2022/06/11 03:52:50;;;;;;;4.55;2.20;;;;;;;15.68;93.86;102132.63;5074050;28;20468;-37
2022/06/11 03:55:15;;;;;;;3.38;2.08;;;;;;;15.84;93.31;102152.13;5074533;28;20048;-36
2022/06/11 03:57:41;;;;;;;;;;;;;;;15.93;92.71;102151.53;5074666;28;20037;-37
2022/06/11 04:00:12;;;;;;;5.20;2.10;;;;;;;15.86;91.93;102149.97;5074120;28;19915;-37
2022/06/11 04:02:37;;;;;;;2.97;1.85;;;;;;;15.89;90.96;102155.78;5074553;28;20028;-37
2022/06/11 04:05:04;;;;;;;4.05;1.90;;;;;;;15.90;90.92;102159.34;5074065;28;20471;-37
2022/06/11 04:07:29;;;;;;;3.25;1.98;;;;;;;15.94;90.94;102171.47;5073727;28;20025;-37
2022/06/11 04:09:55;;;;;;;5.22;2.08;;;;;;;15.95;91.04;102162.19;5074237;28;20024;-37
2022/06/11 04:12:20;;;;;;;;;;;;;;;16.09;90.49;102169.09;5074858;28;20020;-37
2022/06/11 04:14:48;;;;;;;3.50;1.80;;;;;;;16.05;90.43;102167.91;5073864;28;19919;-37
2022/06/11 04:17:34;;;;;;;4.35;1.88;;;;;;;16.08;89.72;102172.91;5073554;28;20025;-37
2022/06/11 04:19:59;;;;;;;5.63;1.80;;;;;;;16.05;90.04;102173.38;5074647;28;20130;-37
2022/06/11 04:22:25;;;;;;;3.28;1.90;;;;;;;16.02;89.87;102171.13;5073802;28;20044;-37
2022/06/11 04:24:50;;;;;;;;;;;;;;;16.16;89.81;102178.03;5074150;28;20110;-37
2022/06/11 04:27:18;;;;;;;5.63;1.70;;;;;;;16.09;87.28;102181.91;5073974;28;19908;-37
2022/06/11 04:29:48;;;;;;;4.85;2.20;;;;;;;16.12;87.53;102182.28;5073639;28;20623;-37
2022/06/11 04:32:16;;;;;;;6.60;1.88;;;;;;;16.09;85.56;102187.38;5073664;28;20068;-37
2022/06/11 04:34:43;;;;;;;4.25;2.08;;;;;;;16.08;86.37;102183.00;5073700;28;20036;-36
2022/06/11 04:37:13;;;;;;;5.75;1.95;;;;;;;16.14;85.11;102182.88;5073799;28;20025;-37
2022/06/11 04:39:41;;;;;;;7.63;2.40;;;;;;;16.13;84.36;102186.69;5073439;28;20110;-37
2022/06/11 04:42:07;;;;;;;4.65;1.73;;;;;;;16.16;84.03;102186.22;5073732;28;20060;-37
2022/06/11 04:44:32;;;;;;;5.22;1.70;;;;;;;16.15;83.35;102190.00;5073624;28;20086;-37
2022/06/11 04:46:57;;;;;;;5.82;1.90;;;;;;;16.16;82.20;102188.94;5073769;28;20038;-37
2022/06/11 04:49:23;;;;;;;;;;;;;;;16.27;84.80;102192.75;5074525;28;20052;-37
2022/06/11 04:51:49;;;;;;;5.45;1.85;;;;;;;16.08;81.80;102169.34;5073541;28;19928;-37
2022/06/11 04:54:14;;;;;;;;;;;;;;;16.30;83.15;102192.28;5074764;28;20127;-37
2022/06/11 04:56:40;;;;;;;7.65;1.85;;;;;;;16.26;80.74;102202.00;5073178;28;19912;-37
2022/06/11 04:59:06;;;;;;;4.97;1.88;;;;;;;16.16;80.16;102194.41;5073106;28;20082;-37
2022/06/11 05:01:31;;;;;;;5.65;1.65;;;;;;;16.23;79.92;102191.56;5073980;28;20064;-37
2022/06/11 05:03:57;;;;;;;;;;;;;;;16.33;82.51;102191.78;5073580;28;20060;-37
2022/06/11 05:06:26;;;;;;;6.90;1.80;;;;;;;16.19;79.22;102183.00;5073949;28;20002;-37
2022/06/11 05:08:53;;;;;;;7.20;2.50;;;;;;;16.23;79.11;102197.84;5073160;28;20447;-37
2022/06/11 05:11:18;;;;;;;6.13;2.03;;;;;;;16.31;78.14;102191.22;5073292;28;20058;-37
2022/06/11 05:13:43;;;;;;;7.38;1.77;;;;;;;16.35;77.94;102191.56;5073272;28;20449;-37
2022/06/11 05:16:12;;;;;;;;;;;;;;;16.46;80.45;102196.19;5073461;28;20025;-37
2022/06/11 05:18:37;;;;;;;6.50;2.25;;;;;;;16.40;77.03;102199.88;5072349;28;19923;-37
2022/06/11 05:21:03;;;;;;;6.68;2.10;;;;;;;16.38;76.46;102188.34;5073343;28;20032;-37
2022/06/11 05:23:28;;;;;;;;;;;;;;;16.54;79.12;102204.00;5073684;28;20379;-37
2022/06/11 05:25:54;;;;;;;7.22;1.90;;;;;;;16.44;77.73;102198.31;5072659;28;20265;-37
2022/06/11 05:28:21;;;;;;;;;;;;;;;16.54;79.08;102211.38;5073339;28;20021;-37
2022/06/11 05:30:47;;;;;;;6.95;2.35;;;;;;;16.43;77.13;102210.31;5073707;28;19909;-37
2022/06/11 05:33:13;;;;;;;7.15;1.30;;;;;;;16.57;80.63;102202.72;5072943;28;20025;-37
2022/06/11 05:35:39;;;;;;;6.70;1.73;;;;;;;16.47;77.10;102193.22;5073480;28;20039;-37
2022/06/11 05:38:05;;;;;;;;;;;;;;;16.75;79.15;102201.81;5073526;28;20025;-37
2022/06/11 05:40:34;;;;;;;5.93;1.52;;;;;;;16.80;76.70;102201.91;5072962;28;19909;-37
2022/06/11 05:42:59;;;;;;;4.45;1.50;;;;;;;16.90;76.54;102181.09;5072742;28;20025;-37
2022/06/11 05:45:27;;;;;;;;;;;;;;;17.16;77.95;102201.59;5073821;28;20029;-37
2022/06/11 05:47:54;;;;;;;9.05;2.15;;;;;;;17.14;74.42;102209.22;5073040;28;19908;-37
2022/06/11 05:50:25;;;;;;;6.80;2.28;;;;;;;17.05;74.03;102202.44;5072641;28;20025;-37
2022/06/11 05:52:51;;;;;;;11.18;3.15;;;;;;;17.03;73.40;102211.94;5073208;28;20056;-37
2022/06/11 05:55:21;;;;;;;7.22;2.15;;;;;;;17.06;73.18;102209.56;5073327;28;20029;-37
2022/06/11 05:57:50;;;;;;;5.53;1.70;;;;;;;17.00;73.40;102196.88;5073157;28;20087;-37
2022/06/11 06:00:18;;;;;;;8.43;2.00;;;;;;;17.08;72.42;102198.38;5072352;28;20021;-37
2022/06/11 06:02:44;;;;;;;7.63;2.05;;;;;;;17.21;72.52;102209.88;5072907;28;20120;-37
2022/06/11 06:05:11;;;;;;;;;;;;;;;17.37;74.02;102218.38;5072791;28;20043;-37
2022/06/11 06:07:36;;;;;;;;;;;;;;;17.47;73.73;102213.13;5073106;28;19915;-43
2022/06/11 06:10:03;;;;;;;7.30;2.13;;;;;;;17.49;71.69;102211.00;5072551;28;19995;-37
2022/06/11 06:12:36;;;;;;;8.82;2.42;;;;;;;17.53;72.17;102205.88;5073454;28;20028;-37
2022/06/11 06:15:13;;;;;;;6.97;2.08;;;;;;;17.66;72.16;102211.00;5072744;28;20028;-37
2022/06/11 06:17:39;;;;;;;7.63;2.58;;;;;;;17.80;71.97;102206.09;5072918;28;20025;-37
2022/06/11 06:20:05;;;;;;;;;;;;;;;17.98;73.42;102220.41;5073199;28;20027;-37
2022/06/11 06:22:31;;;;;;;7.97;2.67;;;;;;;17.81;70.89;102213.22;5072342;28;19981;-37
2022/06/11 06:24:56;;;;;;;;;;;;;;;18.03;73.09;102216.91;5072785;28;20500;-37
2022/06/11 06:27:21;;;;;;;12.90;2.90;;;;;;;17.97;71.03;102217.91;5072695;28;19931;-37
2022/06/11 06:29:47;;;;;;;;;;;;;;;18.17;72.66;102220.16;5073511;28;20032;-37
2022/06/11 06:32:12;;;;;;;12.07;2.67;;;;;;;17.92;71.45;102217.84;5077101;28;19992;-37
2022/06/11 06:34:37;;;;;;;;;;;;;;;18.06;73.01;102219.19;5076889;28;20082;-37
2022/06/11 06:37:03;;;;;;;6.80;2.60;;;;;;;17.79;71.79;102226.34;5075829;28;19920;-37
2022/06/11 06:39:29;;;;;;;;;;;;;;;17.91;72.98;102230.69;5076623;28;20024;-37
2022/06/11 06:41:55;;;;;;;10.05;2.53;;;;;;;17.88;72.71;102233.09;5075567;28;20010;-37
2022/06/11 06:44:20;;;;;;;;;;;;;;;18.07;73.48;102242.72;5076774;28;20060;-37
2022/06/11 06:46:45;;;;;;;11.60;3.07;;;;;;;18.02;72.20;102239.91;5075577;28;20360;-37
2022/06/11 06:49:11;;;;;;;;;;;;;;;18.15;72.51;102233.25;5076086;28;20299;-37
2022/06/11 06:51:36;;;;;;;10.75;2.78;;;;;;;18.15;70.77;102225.03;5074769;28;19912;-37
2022/06/11 06:54:01;;;;;;;;;;;;;;;18.39;72.84;102228.44;5075984;28;20090;-37
2022/06/11 06:56:31;;;;;;;12.23;3.13;;;;;;;18.31;70.72;102228.88;5075578;28;19927;-37
2022/06/11 06:58:57;;;;;;;13.52;2.80;;;;;;;18.35;70.67;102235.50;5075224;28;20404;-37
2022/06/11 07:01:23;;;;;;;15.43;4.00;;;;;;;18.40;70.95;102238.34;5075148;28;20040;-37
2022/06/11 07:03:49;;;;;;;15.63;4.00;;;;;;;18.44;71.09;102239.50;5074844;28;20469;-37
2022/06/11 07:06:14;;;;;;;;;;;;;;;18.58;72.03;102235.31;5075360;28;20040;-37
2022/06/11 07:08:39;;;;;;;10.55;2.85;;;;;;;18.43;71.08;102224.13;5075595;28;20249;-37
2022/06/11 07:11:05;;;;;;;;;;;;;;;18.63;72.40;102240.88;5075706;28;20067;-37
2022/06/11 07:13:31;;;;;;;10.63;3.08;;;;;;;18.56;70.50;102245.72;5075129;28;20018;-37
2022/06/11 07:15:57;;;;;;;8.80;2.90;;;;;;;18.59;70.97;102242.47;5074872;28;20028;-37
2022/06/11 07:18:28;;;;;;;;;;;;;;;18.69;71.19;102252.78;5075077;28;20020;-37
2022/06/11 07:20:56;;;;;;;9.52;3.00;;;;;;;18.40;69.64;102247.41;5073870;28;19915;-37
2022/06/11 07:23:25;;;;;;;12.40;3.42;;;;;;;18.33;70.66;102224.81;5075002;28;20174;-37
2022/06/11 07:25:54;;;;;;;13.35;3.60;;;;;;;18.31;70.50;102232.47;5075459;28;20111;-37
2022/06/11 07:28:24;;;;;;;10.13;3.22;;;;;;;18.31;71.49;102223.41;5074839;28;20477;-37
2022/06/11 07:30:50;;;;;;;10.20;2.90;;;;;;;18.36;71.53;102227.06;5074880;28;20035;-37
2022/06/11 07:33:17;;;;;;;;;;;;;;;18.58;71.80;102229.03;5075433;28;20074;-37
2022/06/11 07:35:43;;;;;;;14.55;3.67;;;;;;;18.49;69.95;102234.91;5074525;28;19934;-37
2022/06/11 07:38:10;;;;;;;;;;;;;;;18.71;71.81;102235.00;5075368;28;20033;-37
2022/06/11 07:40:35;;;;;;;8.05;2.28;;;;;;;18.78;70.24;102237.56;5074672;28;19954;-37
2022/06/11 07:43:00;;;;;;;;;;;;;;;18.92;71.08;102246.25;5074465;28;20056;-37
2022/06/11 07:45:26;;;;;;;13.63;3.33;;;;;;;18.64;69.05;102222.53;5074533;28;19912;-37
2022/06/11 07:47:54;;;;;;;;;;;;;;;18.88;70.48;102234.13;5075163;28;20043;-37
2022/06/11 07:50:23;;;;;;;20.75;3.97;;;;;;;18.81;69.39;102220.63;5074395;28;19958;-35
2022/06/11 07:52:48;;;;;;;14.27;3.50;;;;;;;18.88;69.90;102236.88;5074599;28;20067;-35
2022/06/11 07:55:14;;;;;;;;;;;;;;;19.00;70.28;102243.09;5074696;28;20429;-35
2022/06/11 07:57:40;;;;;;;8.98;2.45;;;;;;;18.98;67.38;102240.63;5074223;28;19960;-35
2022/06/11 08:00:09;;;;;;;12.82;3.75;;;;;;;19.00;68.47;102237.63;5074050;28;20021;-35
2022/06/11 08:02:34;;;;;;;9.13;3.13;;;;;;;19.15;67.44;102237.81;5074056;28;20028;-36
2022/06/11 08:04:59;;;;;;;;;;;;;;;19.37;68.28;102240.53;5074219;28;20024;-36
2022/06/11 08:07:27;;;;;;;12.47;3.57;;;;;;;19.42;66.09;102235.13;5073993;28;19916;-36
2022/06/11 08:09:53;;;;;;;11.68;3.17;;;;;;;19.54;66.14;102249.53;5072765;28;20754;-36
2022/06/11 08:12:19;;;;;;;10.55;3.05;;;;;;;19.59;65.10;102246.00;5074050;28;20060;-36
2022/06/11 08:14:44;;;;;;;;;;;;;;;19.78;65.42;102238.28;5074592;28;20060;-36
2022/06/11 08:17:09;;;;;;;13.07;3.27;;;;;;;19.74;65.23;102248.13;5073962;28;19912;-36
2022/06/11 08:19:34;;;;;;;8.68;2.40;;;;;;;19.88;64.68;102254.84;5073828;28;20393;-35
2022/06/11 08:22:00;;;;;;;10.80;3.00;;;;;;;19.74;64.58;102257.19;5073805;28;20049;-35
2022/06/11 08:24:25;;;;;;;10.30;3.05;;;;;;;19.50;64.40;102253.03;5073736;28;20035;-35
2022/06/11 08:26:51;;;;;;;12.40;2.97;;;;;;;19.57;64.16;102256.44;5073870;28;20020;-35
2022/06/11 08:29:16;;;;;;;;;;;;;;;19.71;65.62;102263.16;5073831;28;20020;-36
2022/06/11 08:31:41;;;;;;;12.37;2.90;;;;;;;19.48;64.35;102261.53;5074158;28;19912;-36
2022/06/11 08:34:06;;;;;;;;;;;;;;;19.61;65.36;102271.28;5073966;28;20306;-36
2022/06/11 08:36:32;;;;;;;12.00;3.17;;;;;;;19.52;65.13;102270.06;5073920;28;19912;-36
2022/06/11 08:38:57;;;;;;;9.88;2.88;;;;;;;19.59;64.06;102250.66;5074036;28;20393;-36
2022/06/11 08:41:29;;;;;;;;;;;;;;;19.99;65.34;102272.25;5074496;28;20104;-36
2022/06/11 08:44:01;;;;;;;11.82;3.92;;;;;;;20.07;63.65;102274.53;5073210;28;19917;-36
2022/06/11 08:46:30;;;;;;;13.20;3.60;;;;;;;20.21;63.73;102263.97;5073373;28;20024;-36
2022/06/11 08:49:04;;;;;;;12.32;3.67;;;;;;;20.25;63.91;102268.66;5073895;28;20028;-36
2022/06/11 08:51:42;;;;;;;13.48;3.42;;;;;;;20.29;62.56;102269.78;5074113;28;20431;-36
2022/06/11 08:54:11;;;;;;;11.15;3.63;;;;;;;20.16;62.09;102251.00;5072568;28;20369;-36
2022/06/11 08:57:02;;;;;;;9.57;2.85;;;;;;;20.26;63.76;102270.31;5073527;28;20047;-36
2022/06/11 08:59:30;;;;;;;11.32;3.55;;;;;;;20.17;62.10;102269.13;5073193;28;20100;-36
2022/06/11 09:02:24;;;;;;;12.60;3.38;;;;;;;20.16;64.07;102266.66;5073354;28;20461;-36
2022/06/11 09:05:17;;;;;;;14.80;3.58;;;;;;;20.16;64.34;102264.75;5073068;28;20373;-36
2022/06/11 09:07:51;;;;;;;11.48;3.40;;;;;;;20.36;63.73;102260.50;5073383;28;20039;-36
2022/06/11 09:10:50;;;;;;;12.90;3.15;;;;;;;20.50;65.14;102264.50;5073293;28;20048;-36
2022/06/11 09:13:17;;;;;;;10.02;3.30;;;;;;;20.48;64.05;102253.75;5050656;28;20162;-36
2022/06/11 09:16:01;;;;;;;13.52;3.53;;;;;;;20.86;64.97;102256.50;5050984;28;20455;-36
2022/06/11 09:18:45;;;;;;;11.45;3.10;;;;;;;21.15;63.71;102249.50;5050906;28;20561;-36
2022/06/11 09:21:23;;;;;;;13.25;3.45;;;;;;;21.25;61.32;102241.28;5050452;28;20104;-36
2022/06/11 09:23:48;;;;;;;13.00;3.80;;;;;;;21.22;60.89;102257.47;5050975;28;20428;-37
2022/06/11 09:26:46;;;;;;;11.23;3.42;;;;;;;21.58;62.05;102253.00;5050872;28;20037;-37
2022/06/11 09:29:13;;;;;;;13.65;3.17;;;;;;;21.48;59.74;102247.47;5050469;28;20124;-36
2022/06/11 09:32:19;;;;;;;13.55;3.35;;;;;;;21.74;60.48;102254.66;5051241;28;20052;-36
2022/06/11 09:34:56;;;;;;;9.57;3.10;;;;;;;21.49;59.33;102246.34;5050395;28;20495;-36
2022/06/11 09:37:34;;;;;;;12.20;3.10;;;;;;;21.63;60.91;102264.00;5051135;28;20132;-36
2022/06/11 09:40:15;;;;;;;14.45;3.22;;;;;;;21.79;59.88;102257.44;5050954;28;20025;-36
2022/06/11 09:43:12;;;;;;;10.10;3.22;;;;;;;21.98;59.30;102256.91;5050900;28;20441;-36
2022/06/11 09:45:51;;;;;;;12.55;3.92;;;;;;;22.06;58.94;102250.88;4991771;28;20180;-36
2022/06/11 09:48:27;;;;;;;11.05;3.60;;;;;;;22.07;58.56;102241.50;4991633;28;20043;-36
2022/06/11 09:51:19;;;;;;;;;;;;;;;22.48;59.25;102264.38;4991703;28;20038;-36
2022/06/11 09:54:14;;;;;;;13.45;4.10;;;;;;;22.45;56.47;102264.09;4971780;28;20398;-36
2022/06/11 09:56:45;;;;;;;10.45;3.45;;;;;;;22.22;55.96;102255.31;4968221;28;20479;-37
2022/06/11 09:59:33;;;;;;;11.60;3.40;;;;;;;22.36;56.76;102264.69;4971646;28;20043;-36
2022/06/11 10:02:16;;;;;;;12.05;3.60;;;;;;;22.38;55.91;102253.38;4971481;28;20035;-36
2022/06/11 10:04:45;;;;;;;11.27;3.78;;;;;;;22.36;56.61;102250.91;4972594;28;20047;-37
2022/06/11 10:07:16;;;;;;;12.35;3.80;;;;;;;22.39;59.25;102248.69;4975461;28;20031;-36
2022/06/11 10:09:47;;;;;;;11.57;3.78;;;;;;;22.39;56.87;102252.25;4975410;28;20035;-37
2022/06/11 10:12:54;;;;;;;13.57;3.53;;;;;;;22.72;57.09;102248.09;4975130;28;20129;-35
2022/06/11 10:15:34;;;;;;;12.80;4.00;;;;;;;22.68;57.10;102257.19;4955931;29;20117;-36
2022/06/11 10:18:17;;;;;;;11.90;3.90;;;;;;;22.78;57.25;102262.69;4939555;29;20036;-36
2022/06/11 10:21:09;;;;;;;10.68;3.63;;;;;;;22.73;57.13;102248.91;4955721;29;20472;-36
2022/06/11 10:23:55;;;;;;;14.02;3.83;;;;;;;22.69;56.22;102259.66;4992751;28;20551;-36
2022/06/11 10:26:30;;;;;;;10.52;3.03;;;;;;;22.82;56.46;102261.03;4994862;28;20065;-36
2022/06/11 10:29:20;;;;;;;12.32;4.13;;;;;;;22.80;54.00;102253.06;4994624;28;20027;-37
2022/06/11 10:31:53;;;;;;;14.23;3.78;;;;;;;23.10;55.45;102265.13;5033905;28;20033;-36
2022/06/11 10:34:22;;;;;;;8.90;3.40;;;;;;;23.10;54.57;102260.44;5033954;28;20114;-37
2022/06/11 10:36:55;;;;;;;11.00;3.45;;;;;;;23.16;54.47;102244.69;5033491;28;20129;-36
2022/06/11 10:39:36;;;;;;;10.88;3.15;;;;;;;23.29;55.18;102263.41;5033662;28;20037;-37
2022/06/11 10:42:06;;;;;;;11.60;3.20;;;;;;;23.23;52.05;102249.88;5033502;28;20082;-37
2022/06/11 10:44:38;;;;;;;9.98;3.05;;;;;;;23.38;51.97;102258.13;5033664;28;20053;-36
2022/06/11 10:47:16;;;;;;;11.85;3.45;;;;;;;23.26;50.99;102255.66;5033535;28;20493;-37
2022/06/11 10:49:43;;;;;;;15.93;3.97;;;;;;;23.41;51.69;102259.47;5033171;28;20646;-36
2022/06/11 10:52:21;;;;;;;8.98;2.90;;;;;;;23.48;51.45;102246.22;5065204;28;20138;-37
2022/06/11 10:54:47;;;;;;;16.00;3.55;;;;;;;23.49;50.36;102247.84;5075308;28;20053;-36
2022/06/11 10:57:21;;;;;;;9.77;2.88;;;;;;;23.62;50.97;102244.47;5075836;28;20031;-37
2022/06/11 10:59:51;;;;;;;12.40;3.78;;;;;;;23.69;50.79;102252.47;5075099;28;20481;-37
2022/06/11 11:02:37;;;;;;;10.85;3.30;;;;;;;23.78;50.11;102253.50;5075539;28;20397;-37
2022/06/11 11:05:05;;;;;;;8.70;2.90;;;;;;;23.88;51.78;102251.50;5074909;28;20119;-37
2022/06/11 11:07:51;;;;;;;11.20;3.58;;;;;;;23.81;50.59;102252.91;5075375;28;20043;-35
2022/06/11 11:10:25;;;;;;;10.05;3.60;;;;;;;24.05;50.21;102259.38;5075244;28;20031;-36
2022/06/11 11:12:58;;;;;;;10.65;3.38;;;;;;;24.20;50.39;102254.84;5075070;28;20480;-36
2022/06/11 11:15:27;;;;;;;12.18;3.40;;;;;;;24.20;50.46;102233.56;5075309;28;20028;-36
2022/06/11 11:17:58;;;;;;;11.27;3.58;;;;;;;24.26;48.68;102248.19;5074780;28;20411;-36
2022/06/11 11:20:41;;;;;;;10.18;3.42;;;;;;;24.34;50.89;102248.34;5075187;28;20081;-36
2022/06/11 11:23:09;;;;;;;10.50;3.00;;;;;;;24.46;48.30;102238.91;5075343;28;20222;-36
2022/06/11 11:25:42;;;;;;;10.15;3.35;;;;;;;24.40;48.93;102225.13;5075215;28;20032;-36
2022/06/11 11:28:19;;;;;;;9.98;2.83;;;;;;;24.34;48.94;102242.84;5074972;28;20085;-37
2022/06/11 11:30:45;;;;;;;8.77;2.88;;;;;;;24.30;49.36;102238.16;5075083;28;20108;-37
2022/06/11 11:33:32;;;;;;;8.48;2.63;;;;;;;24.26;49.89;102237.94;5074849;28;20385;-37
2022/06/11 11:36:16;;;;;;;9.68;2.72;;;;;;;24.46;49.80;102236.16;5074474;28;20035;-36
2022/06/11 11:38:42;;;;;;;7.72;2.90;;;;;;;24.48;50.22;102229.19;5074638;28;20025;-36
2022/06/11 11:41:23;;;;;;;9.07;2.90;;;;;;;24.41;47.92;102242.53;5074564;28;20051;-36
2022/06/11 11:43:51;;;;;;;9.73;3.40;;;;;;;24.48;47.18;102228.38;5074641;28;20024;-37
2022/06/11 11:46:23;;;;;;;8.07;2.53;;;;;;;24.52;46.68;102241.31;5074794;28;20071;-36
2022/06/11 11:48:54;;;;;;;10.05;3.35;;;;;;;24.57;46.42;102238.50;5078557;28;20027;-36
2022/06/11 11:51:25;;;;;;;9.05;2.55;;;;;;;24.69;46.38;102228.97;5076700;28;20085;-36
2022/06/11 11:54:06;;;;;;;8.48;2.50;;;;;;;25.03;48.74;102235.22;5073243;28;20119;-36